createdAt,value
2022-11-19T00:01:55.158Z,87.60
2022-11-19T00:04:29.224Z,87.70
2022-11-19T00:06:57.309Z,87.70
2022-11-19T00:09:31.155Z,87.70
2022-11-19T00:12:23.254Z,87.50
2022-11-19T00:14:50.314Z,87.50
2022-11-19T00:17:24.256Z,87.60
2022-11-19T00:19:51.430Z,87.60
2022-11-19T00:22:25.145Z,87.50
2022-11-19T00:24:52.370Z,87.50
2022-11-19T00:27:26.384Z,87.50
2022-11-19T00:30:00.365Z,87.50
2022-11-19T00:32:40.268Z,87.50
2022-11-19T00:35:08.179Z,87.30
2022-11-19T00:37:43.352Z,87.30
2022-11-19T00:40:13.298Z,87.20
2022-11-19T00:43:07.424Z,87.20
2022-11-19T00:45:41.252Z,87.20
2022-11-19T00:48:08.577Z,87.10
2022-11-19T00:50:43.381Z,87.10
2022-11-19T00:53:10.536Z,86.80
2022-11-19T00:55:45.246Z,86.60
2022-11-19T00:58:12.412Z,86.40
2022-11-19T01:00:47.487Z,86.20
2022-11-19T01:03:14.557Z,86.30
2022-11-19T01:05:48.407Z,86.40
2022-11-19T01:08:22.187Z,86.50
2022-11-19T01:10:49.729Z,86.30
2022-11-19T01:13:41.263Z,86.30
2022-11-19T01:16:15.473Z,86.10
2022-11-19T01:18:54.135Z,85.90
2022-11-19T01:21:25.562Z,85.80
2022-11-19T01:24:00.497Z,85.70
2022-11-19T01:26:50.399Z,85.50
2022-11-19T01:29:30.434Z,85.30
2022-11-19T01:32:04.508Z,85.30
2022-11-19T01:34:38.208Z,85.10
2022-11-19T01:37:06.284Z,85.20
2022-11-19T01:39:40.161Z,85.30
2022-11-19T01:42:27.853Z,85.30
2022-11-19T01:45:09.178Z,85.30
2022-11-19T01:47:36.334Z,85.30
2022-11-19T01:50:10.481Z,85.40
2022-11-19T01:52:46.333Z,85.30
2022-11-19T01:55:20.283Z,85.10
2022-11-19T01:58:04.149Z,85.00
2022-11-19T02:00:42.280Z,85.00
2022-11-19T02:03:22.768Z,85.00
2022-11-19T02:05:50.597Z,84.90
2022-11-19T02:08:49.336Z,84.90
2022-11-19T02:11:41.678Z,85.00
2022-11-19T02:14:54.559Z,84.80
2022-11-19T02:18:07.291Z,84.70
2022-11-19T02:21:04.404Z,84.40
2022-11-19T02:24:15.296Z,84.20
2022-11-19T02:27:00.183Z,84.30
2022-11-19T02:30:16.329Z,84.40
2022-11-19T02:33:23.236Z,84.60
2022-11-19T02:36:11.576Z,84.20
2022-11-19T02:38:50.236Z,83.70
2022-11-19T02:41:35.675Z,83.60
2022-11-19T02:44:38.419Z,84.00
2022-11-19T02:47:13.799Z,84.20
2022-11-19T02:49:54.369Z,84.20
2022-11-19T02:52:22.870Z,84.00
2022-11-19T02:54:56.527Z,83.70
2022-11-19T02:57:32.358Z,83.70
2022-11-19T03:00:29.205Z,83.90
2022-11-19T03:03:27.020Z,83.70
2022-11-19T03:06:06.170Z,83.60
2022-11-19T03:08:33.829Z,83.50
2022-11-19T03:11:27.172Z,83.60
2022-11-19T03:14:46.274Z,84.00
2022-11-19T03:17:22.150Z,84.10
2022-11-19T03:20:15.230Z,83.70
2022-11-19T03:22:54.005Z,83.10
2022-11-19T03:25:41.305Z,83.00
2022-11-19T03:28:13.294Z,83.20
2022-11-19T03:31:04.284Z,83.30
2022-11-19T03:33:55.623Z,83.50
2022-11-19T03:36:37.418Z,83.80
2022-11-19T03:39:09.569Z,83.90
2022-11-19T03:41:46.214Z,83.70
2022-11-19T03:44:23.699Z,83.40
2022-11-19T03:47:04.471Z,83.20
2022-11-19T03:49:39.369Z,83.40
2022-11-19T03:52:15.457Z,83.60
2022-11-19T03:54:43.610Z,83.50
2022-11-19T03:57:21.330Z,83.10
2022-11-19T03:59:48.759Z,83.20
2022-11-19T04:02:23.419Z,83.20
2022-11-19T04:04:57.473Z,82.90
2022-11-19T04:07:31.304Z,82.50
2022-11-19T04:10:05.829Z,82.60
2022-11-19T04:12:33.272Z,82.70
2022-11-19T04:15:07.165Z,82.80
2022-11-19T04:17:34.551Z,82.80
2022-11-19T04:20:09.365Z,82.70
2022-11-19T04:22:36.510Z,82.70
2022-11-19T04:25:12.535Z,82.50
2022-11-19T04:27:39.868Z,82.50
2022-11-19T04:30:21.209Z,82.30
2022-11-19T04:32:55.665Z,82.50
2022-11-19T04:35:29.244Z,82.20
2022-11-19T04:38:03.314Z,82.10
2022-11-19T04:40:30.670Z,81.80
2022-11-19T04:43:04.315Z,81.50
2022-11-19T04:45:32.317Z,81.40
2022-11-19T04:48:07.176Z,81.50
2022-11-19T04:50:34.513Z,81.40
2022-11-19T04:53:08.278Z,80.80
2022-11-19T04:55:42.261Z,81.10
2022-11-19T04:58:16.466Z,81.20
2022-11-19T05:00:43.584Z,81.20
2022-11-19T05:03:17.195Z,81.10
2022-11-19T05:05:45.359Z,81.20
2022-11-19T05:08:19.249Z,81.10
2022-11-19T05:10:46.576Z,80.90
2022-11-19T05:13:20.274Z,80.60
2022-11-19T05:15:48.441Z,80.40
2022-11-19T05:18:22.324Z,80.40
2022-11-19T05:20:49.498Z,80.30
2022-11-19T05:23:18.154Z,80.70
2022-11-19T05:25:53.017Z,80.60
2022-11-19T05:28:38.067Z,80.40
2022-11-19T05:31:19.217Z,80.60
2022-11-19T05:34:00.287Z,79.80
2022-11-19T05:36:27.882Z,79.40
2022-11-19T05:39:01.467Z,79.90
2022-11-19T05:41:28.909Z,80.30
2022-11-19T05:43:56.991Z,80.10
2022-11-19T05:46:30.104Z,80.40
2022-11-19T05:48:57.802Z,80.80
2022-11-19T05:51:31.176Z,81.00
2022-11-19T05:53:58.525Z,80.90
2022-11-19T05:56:32.478Z,80.70
2022-11-19T05:59:06.283Z,80.50
2022-11-19T06:01:41.318Z,80.40
2022-11-19T06:04:09.276Z,80.30
2022-11-19T06:06:36.712Z,80.10
2022-11-19T06:09:11.266Z,80.00
2022-11-19T06:11:53.677Z,79.90
2022-11-19T06:14:30.227Z,79.90
2022-11-19T06:16:59.521Z,79.70
2022-11-19T06:19:34.187Z,78.80
2022-11-19T06:22:08.608Z,78.70
2022-11-19T06:24:35.959Z,79.40
2022-11-19T06:27:03.193Z,79.60
2022-11-19T06:29:37.289Z,79.90
2022-11-19T06:32:10.964Z,80.00
2022-11-19T06:34:44.342Z,79.90
2022-11-19T06:37:11.589Z,79.70
2022-11-19T06:39:45.294Z,79.60
2022-11-19T06:42:31.085Z,79.50
2022-11-19T06:45:05.299Z,79.80
2022-11-19T06:47:40.347Z,79.80
2022-11-19T06:50:08.421Z,79.50
2022-11-19T06:52:43.226Z,79.60
2022-11-19T06:55:17.696Z,79.60
2022-11-19T06:57:44.930Z,79.60
2022-11-19T07:00:21.293Z,79.60
2022-11-19T07:02:55.235Z,79.50
2022-11-19T07:05:23.443Z,79.50
2022-11-19T07:08:02.811Z,79.30
2022-11-19T07:10:32.143Z,79.00
2022-11-19T07:13:06.470Z,78.80
2022-11-19T07:15:40.460Z,78.80
2022-11-19T07:18:07.625Z,77.80
2022-11-19T07:20:41.270Z,77.90
2022-11-19T07:23:11.701Z,77.80
2022-11-19T07:25:46.487Z,77.90
2022-11-19T07:28:20.121Z,78.20
2022-11-19T07:31:00.464Z,78.30
2022-11-19T07:33:36.546Z,78.60
2022-11-19T07:36:15.356Z,78.40
2022-11-19T07:38:45.746Z,78.40
2022-11-19T07:41:38.358Z,77.90
2022-11-19T07:44:05.953Z,78.20
2022-11-19T07:46:39.309Z,78.40
2022-11-19T07:49:06.465Z,78.80
2022-11-19T07:51:40.229Z,78.70
2022-11-19T07:54:10.164Z,78.40
2022-11-19T07:56:44.269Z,78.70
2022-11-19T07:59:12.271Z,78.90
2022-11-19T08:01:46.457Z,78.80
2022-11-19T08:04:13.713Z,78.60
2022-11-19T08:06:47.386Z,78.50
2022-11-19T08:09:14.979Z,78.30
2022-11-19T08:11:49.535Z,78.40
2022-11-19T08:14:16.749Z,77.90
2022-11-19T08:17:09.334Z,77.20
2022-11-19T08:19:37.104Z,77.40
2022-11-19T08:22:11.214Z,77.60
2022-11-19T08:24:46.227Z,77.50
2022-11-19T08:33:02.511Z,77.50
2022-11-19T08:35:30.468Z,77.70
2022-11-19T08:38:05.232Z,77.90
2022-11-19T08:40:39.291Z,78.10
2022-11-19T08:43:06.776Z,78.10
2022-11-19T08:45:42.530Z,77.80
2022-11-19T08:48:10.696Z,77.90
2022-11-19T08:50:44.605Z,77.60
2022-11-19T08:53:11.735Z,77.40
2022-11-19T08:55:45.299Z,77.30
2022-11-19T08:58:12.625Z,77.00
2022-11-19T09:00:46.247Z,77.30
2022-11-19T09:03:13.529Z,77.50
2022-11-19T09:05:47.350Z,77.50
2022-11-19T09:08:14.522Z,77.30
2022-11-19T09:10:48.350Z,77.20
2022-11-19T09:13:15.465Z,77.30
2022-11-19T09:15:49.295Z,77.20
2022-11-19T09:18:17.147Z,77.00
2022-11-19T09:20:52.312Z,76.90
2022-11-19T09:23:19.561Z,77.00
2022-11-19T09:26:05.356Z,77.20
2022-11-19T09:28:39.264Z,76.70
2022-11-19T09:31:15.461Z,76.50
2022-11-19T09:33:51.784Z,76.60
2022-11-19T09:36:26.282Z,76.00
2022-11-19T09:38:57.988Z,76.30
2022-11-19T09:41:50.324Z,76.40
2022-11-19T09:44:36.077Z,76.20
2022-11-19T09:47:51.293Z,76.10
2022-11-19T09:50:31.549Z,76.20
2022-11-19T09:53:11.495Z,76.00
2022-11-19T09:55:43.290Z,76.00
2022-11-19T09:58:47.439Z,75.80
2022-11-19T10:01:25.651Z,75.20
2022-11-19T10:03:55.055Z,75.70
2022-11-19T10:06:52.291Z,76.10
2022-11-19T10:09:41.318Z,76.50
2022-11-19T10:12:38.253Z,76.80
2022-11-19T10:15:37.155Z,76.60
2022-11-19T10:18:04.381Z,76.70
2022-11-19T10:20:56.486Z,76.50
2022-11-19T10:23:53.331Z,76.00
2022-11-19T10:26:34.468Z,76.30
2022-11-19T10:29:10.298Z,76.50
2022-11-19T10:31:50.385Z,75.90
2022-11-19T10:34:38.282Z,75.90
2022-11-19T10:37:21.228Z,76.10
2022-11-19T10:40:08.314Z,76.20
2022-11-19T10:42:46.474Z,76.30
2022-11-19T10:45:31.683Z,75.90
2022-11-19T10:48:29.359Z,75.80
2022-11-19T10:50:59.612Z,76.10
2022-11-19T10:53:45.735Z,76.20
2022-11-19T10:56:20.279Z,76.60
2022-11-19T10:59:00.397Z,76.90
2022-11-19T11:01:35.965Z,76.70
2022-11-19T11:04:28.455Z,77.00
2022-11-19T11:07:04.351Z,76.70
2022-11-19T11:09:45.247Z,75.90
2022-11-19T11:12:43.400Z,75.70
2022-11-19T11:15:31.319Z,76.00
2022-11-19T11:18:15.313Z,76.40
2022-11-19T11:20:58.451Z,76.50
2022-11-19T11:23:28.530Z,76.40
2022-11-19T11:26:15.555Z,76.30
2022-11-19T11:29:21.420Z,76.50
2022-11-19T11:31:55.800Z,76.30
2022-11-19T11:34:44.081Z,76.30
2022-11-19T11:37:19.321Z,76.40
2022-11-19T11:39:49.536Z,76.00
2022-11-19T11:42:27.394Z,76.30
2022-11-19T11:45:00.503Z,76.10
2022-11-19T11:47:38.326Z,76.40
2022-11-19T11:50:15.000Z,76.40
2022-11-19T11:52:55.336Z,76.20
2022-11-19T11:55:25.464Z,76.30
2022-11-19T11:58:02.245Z,75.50
2022-11-19T12:00:53.477Z,75.70
2022-11-19T12:03:22.655Z,75.40
2022-11-19T12:06:23.490Z,74.90
2022-11-19T12:09:16.696Z,75.40
2022-11-19T12:12:26.742Z,75.50
2022-11-19T12:15:46.962Z,75.80
2022-11-19T12:18:28.848Z,75.60
2022-11-19T12:21:11.532Z,75.00
2022-11-19T12:24:14.241Z,74.90
2022-11-19T12:27:12.482Z,75.00
2022-11-19T12:29:53.786Z,75.20
2022-11-19T12:32:38.252Z,75.90
2022-11-19T12:35:41.551Z,76.00
2022-11-19T12:38:43.363Z,75.50
2022-11-19T12:41:29.481Z,75.30
2022-11-19T12:44:06.260Z,76.10
2022-11-19T12:46:49.560Z,75.70
2022-11-19T12:49:44.915Z,75.70
2022-11-19T12:52:30.291Z,76.10
2022-11-19T12:55:04.792Z,75.70
2022-11-19T12:57:53.915Z,76.30
2022-11-19T13:00:30.389Z,75.90
2022-11-19T13:03:12.497Z,76.00
2022-11-19T13:05:52.363Z,75.70
2022-11-19T13:08:45.333Z,75.90
2022-11-19T13:11:36.667Z,76.00
2022-11-19T13:14:37.584Z,75.90
2022-11-19T13:17:10.575Z,76.00
2022-11-19T13:19:46.384Z,75.80
2022-11-19T13:22:20.046Z,75.70
2022-11-19T13:24:59.565Z,75.60
2022-11-19T13:27:36.459Z,75.70
2022-11-19T13:30:14.906Z,75.40
2022-11-19T13:33:22.536Z,74.70
2022-11-19T13:36:25.430Z,75.20
2022-11-19T13:39:04.536Z,75.30
2022-11-19T13:42:10.496Z,75.50
2022-11-19T13:44:41.854Z,75.80
2022-11-19T13:47:30.502Z,75.70
2022-11-19T13:50:05.265Z,75.00
2022-11-19T13:52:43.344Z,75.30
2022-11-19T13:55:39.503Z,75.50
2022-11-19T13:58:41.358Z,75.60
2022-11-19T14:01:24.608Z,75.00
2022-11-19T14:04:20.229Z,74.90
2022-11-19T14:06:55.014Z,75.30
2022-11-19T14:10:09.298Z,75.30
2022-11-19T14:13:21.265Z,75.30
2022-11-19T14:16:39.027Z,75.60
2022-11-19T14:19:39.442Z,75.60
2022-11-19T14:22:52.834Z,75.40
2022-11-19T14:26:13.253Z,75.80
2022-11-19T14:29:16.351Z,75.80
2022-11-19T14:32:07.427Z,75.90
2022-11-19T14:34:53.280Z,75.60
2022-11-19T14:37:29.216Z,75.80
2022-11-19T14:40:30.460Z,75.60
2022-11-19T14:43:19.325Z,75.30
2022-11-19T14:46:11.542Z,75.50
2022-11-19T14:48:48.427Z,75.50
2022-11-19T14:51:26.662Z,75.40
2022-11-19T14:54:03.409Z,75.50
2022-11-19T14:56:38.294Z,75.60
2022-11-19T14:59:26.251Z,75.50
2022-11-19T15:02:05.788Z,75.10
2022-11-19T15:04:44.290Z,75.00
2022-11-19T15:07:37.894Z,75.40
2022-11-19T15:10:21.339Z,75.70
2022-11-19T15:13:08.399Z,74.90
2022-11-19T15:15:47.211Z,75.20
2022-11-19T15:18:40.263Z,75.40
2022-11-19T15:21:36.378Z,75.50
2022-11-19T15:24:35.504Z,75.40
2022-11-19T15:27:28.289Z,75.30
2022-11-19T15:30:27.444Z,75.00
2022-11-19T15:33:42.482Z,74.30
2022-11-19T15:36:30.589Z,74.10
2022-11-19T15:39:12.362Z,74.30
2022-11-19T15:42:07.537Z,74.90
2022-11-19T15:44:48.533Z,75.00
2022-11-19T15:47:48.354Z,74.80
2022-11-19T15:50:28.272Z,74.90
2022-11-19T15:53:00.232Z,74.60
2022-11-19T15:55:37.554Z,74.90
2022-11-19T15:58:15.010Z,74.90
2022-11-19T16:00:57.504Z,74.90
2022-11-19T16:03:25.150Z,75.30
2022-11-19T16:06:24.382Z,75.20
2022-11-19T16:09:03.413Z,75.20
2022-11-19T16:12:00.329Z,75.10
2022-11-19T16:14:55.363Z,75.10
2022-11-19T16:17:44.619Z,75.20
2022-11-19T16:20:18.369Z,75.10
2022-11-19T16:23:03.479Z,75.10
2022-11-19T16:25:46.672Z,74.80
2022-11-19T16:28:17.823Z,74.80
2022-11-19T16:31:12.527Z,75.00
2022-11-19T16:33:55.375Z,75.00
2022-11-19T16:36:22.765Z,74.80
2022-11-19T16:38:58.501Z,74.60
2022-11-19T16:41:45.814Z,74.60
2022-11-19T16:44:24.310Z,74.90
2022-11-19T16:46:58.373Z,74.90
2022-11-19T16:50:09.663Z,74.80
2022-11-19T16:52:48.354Z,75.00
2022-11-19T16:55:18.670Z,74.30
2022-11-19T16:58:17.547Z,74.10
2022-11-19T17:01:02.376Z,74.00
2022-11-19T17:03:36.078Z,74.40
2022-11-19T17:06:11.274Z,74.70
2022-11-19T17:08:45.598Z,74.80
2022-11-19T17:11:40.496Z,74.90
2022-11-19T17:14:17.350Z,75.10
2022-11-19T17:16:50.484Z,74.90
2022-11-19T17:19:32.394Z,74.90
2022-11-19T17:22:04.064Z,74.70
2022-11-19T17:24:52.378Z,74.70
2022-11-19T17:27:45.556Z,74.90
2022-11-19T17:30:25.293Z,75.20
2022-11-19T17:33:11.354Z,74.90
2022-11-19T17:35:43.320Z,74.80
2022-11-19T17:38:36.310Z,74.70
2022-11-19T17:41:12.273Z,74.80
2022-11-19T17:44:05.708Z,75.10
2022-11-19T17:46:33.039Z,75.00
2022-11-19T17:49:07.763Z,75.10
2022-11-19T17:51:42.338Z,74.90
2022-11-19T17:54:17.528Z,74.90
2022-11-19T17:56:51.358Z,74.50
2022-11-19T17:59:25.712Z,74.50
2022-11-19T18:01:53.495Z,74.80
2022-11-19T18:04:21.790Z,75.00
2022-11-19T18:06:57.417Z,74.90
2022-11-19T18:09:34.874Z,75.00
2022-11-19T18:12:09.500Z,74.70
2022-11-19T18:14:36.844Z,74.70
2022-11-19T18:17:04.700Z,74.30
2022-11-19T18:19:40.606Z,74.10
2022-11-19T18:22:26.615Z,74.40
2022-11-19T18:24:54.133Z,74.60
2022-11-19T18:27:28.565Z,74.70
2022-11-19T18:29:55.948Z,74.70
2022-11-19T18:32:36.263Z,74.70
2022-11-19T18:35:18.199Z,74.80
2022-11-19T18:37:52.543Z,74.90
2022-11-19T18:40:19.875Z,75.10
2022-11-19T18:43:12.566Z,75.20
2022-11-19T18:45:40.056Z,75.30
2022-11-19T18:48:14.475Z,75.30
2022-11-19T18:50:43.255Z,75.20
2022-11-19T18:53:19.645Z,75.10
2022-11-19T18:55:47.525Z,75.10
2022-11-19T18:58:21.486Z,75.10
2022-11-19T19:00:49.796Z,74.80
2022-11-19T19:03:23.435Z,74.70
2022-11-19T19:05:50.654Z,74.80
2022-11-19T19:08:24.616Z,74.20
2022-11-19T19:10:52.015Z,74.20
2022-11-19T19:13:25.831Z,74.50
2022-11-19T19:15:52.935Z,74.30
2022-11-19T19:18:26.632Z,74.50
2022-11-19T19:21:00.515Z,74.90
2022-11-19T19:23:28.005Z,75.10
2022-11-19T19:26:04.525Z,75.10
2022-11-19T19:28:32.090Z,75.00
2022-11-19T19:31:17.662Z,75.10
2022-11-19T19:33:52.876Z,74.90
2022-11-19T19:36:28.464Z,75.20
2022-11-19T19:38:55.725Z,75.30
2022-11-19T19:41:32.595Z,75.60
2022-11-19T19:44:03.845Z,75.80
2022-11-19T19:46:39.486Z,75.30
2022-11-19T19:49:07.155Z,75.30
2022-11-19T19:51:41.544Z,75.20
2022-11-19T19:54:15.705Z,75.00
2022-11-19T19:56:49.484Z,74.90
2022-11-19T19:59:23.977Z,75.00
2022-11-19T20:01:58.580Z,75.00
2022-11-19T20:04:26.059Z,74.70
2022-11-19T20:06:54.566Z,74.90
2022-11-19T20:09:28.555Z,74.90
2022-11-19T20:11:56.384Z,74.60
2022-11-19T20:14:30.504Z,74.90
2022-11-19T20:16:58.362Z,74.90
2022-11-19T20:19:32.465Z,74.90
2022-11-19T20:22:01.027Z,74.90
2022-11-19T20:24:34.500Z,74.90
2022-11-19T20:27:08.580Z,74.80
2022-11-19T20:29:35.994Z,74.80
2022-11-19T20:32:16.388Z,74.30
2022-11-19T20:34:56.557Z,74.40
2022-11-19T20:37:30.353Z,74.60
2022-11-19T20:40:04.458Z,75.00
2022-11-19T20:42:50.026Z,74.90
2022-11-19T20:45:24.364Z,74.90
2022-11-19T20:47:58.325Z,74.80
2022-11-19T20:50:25.937Z,74.80
2022-11-19T20:52:59.618Z,74.70
2022-11-19T20:55:26.728Z,74.70
2022-11-19T20:58:02.418Z,74.80
2022-11-19T21:00:29.597Z,74.60
2022-11-19T21:03:03.424Z,74.70
2022-11-19T21:05:30.533Z,74.80
2022-11-19T21:08:05.325Z,74.80
2022-11-19T21:10:33.950Z,74.70
2022-11-19T21:13:11.197Z,74.70
2022-11-19T21:15:38.689Z,74.70
2022-11-19T21:18:13.380Z,74.50
2022-11-19T21:20:47.519Z,74.10
2022-11-19T21:23:15.044Z,74.00
2022-11-19T21:25:48.422Z,74.30
2022-11-19T21:28:16.099Z,74.30
2022-11-19T21:30:43.573Z,74.40
2022-11-19T21:33:17.629Z,74.30
2022-11-19T21:35:51.699Z,74.60
2022-11-19T21:38:25.581Z,74.70
2022-11-19T21:40:54.540Z,74.70
2022-11-19T21:43:30.394Z,74.70
2022-11-19T21:45:57.960Z,74.90
2022-11-19T21:48:32.742Z,74.70
2022-11-19T21:51:06.535Z,74.70
2022-11-19T21:53:34.810Z,74.50
2022-11-19T21:56:09.590Z,74.40
2022-11-19T21:58:37.182Z,74.40
2022-11-19T22:01:07.176Z,74.30
2022-11-19T22:03:42.639Z,74.30
2022-11-19T22:06:12.079Z,74.40
2022-11-19T22:08:48.519Z,74.30
2022-11-19T22:11:37.440Z,74.10
2022-11-19T22:14:09.583Z,74.40
2022-11-19T22:16:46.525Z,74.60
2022-11-19T22:19:14.393Z,74.50
2022-11-19T22:21:48.575Z,74.40
2022-11-19T22:24:15.989Z,74.40
2022-11-19T22:26:49.435Z,74.50
2022-11-19T22:29:23.619Z,74.80
2022-11-19T22:32:10.326Z,74.90
2022-11-19T22:34:44.398Z,74.70
2022-11-19T22:37:11.560Z,75.00
2022-11-19T22:39:45.340Z,74.90
2022-11-19T22:42:12.690Z,74.90
2022-11-19T22:44:46.425Z,74.90
2022-11-19T22:47:21.648Z,74.90
2022-11-19T22:49:49.065Z,75.00
2022-11-19T22:52:24.596Z,74.70
2022-11-19T22:54:53.411Z,74.80
2022-11-19T22:57:27.791Z,74.70
2022-11-19T23:00:01.400Z,74.70
2022-11-19T23:02:35.404Z,74.70
2022-11-19T23:05:02.588Z,74.70
2022-11-19T23:07:40.592Z,74.80
2022-11-19T23:10:14.613Z,74.70
2022-11-19T23:13:00.373Z,74.90
2022-11-19T23:15:34.338Z,74.90
2022-11-19T23:18:08.353Z,75.10
2022-11-19T23:20:35.674Z,75.10
2022-11-19T23:23:09.603Z,75.10
2022-11-19T23:25:43.556Z,74.80
2022-11-19T23:28:17.378Z,75.10
2022-11-19T23:30:51.338Z,75.30
2022-11-19T23:33:25.157Z,75.30
2022-11-19T23:35:59.358Z,75.00
2022-11-19T23:38:26.659Z,75.00
2022-11-19T23:41:07.328Z,74.90
2022-11-19T23:43:35.320Z,74.90
2022-11-19T23:46:24.539Z,74.90
2022-11-19T23:48:59.613Z,74.90
2022-11-19T23:51:34.403Z,75.10
2022-11-19T23:54:02.183Z,75.20
2022-11-19T23:56:38.314Z,75.20
2022-11-19T23:59:06.718Z,75.10
